Time;durP1;ratioP1;P1;durP2;ratioP2;P2;SDS_P1;SDS_P2;PMS_P1;PMS_P2;Temp;Humidity;BMP_temperature;BMP_pressure;BME280_temperature;BME280_humidity;BME280_pressure;Samples;Min_cycle;Max_cycle;Signal;HPM_P1;HPM_P2
2022/07/21 00:02:41;;;;;;;12.52;6.68;;;;;;;;;;8395346;28;20048;-86
2022/07/21 00:06:45;;;;;;;9.27;6.13;;;;;;;;;;8397540;28;20048;-86
2022/07/21 00:10:49;;;;;;;9.35;6.22;;;;;;;;;;8397448;28;20075;-85
2022/07/21 00:14:51;;;;;;;9.73;6.35;;;;;;;;;;8397206;28;20048;-88
2022/07/21 00:18:54;;;;;;;8.90;6.20;;;;;;;;;;8397174;28;20040;-86
2022/07/21 00:22:58;;;;;;;8.98;6.28;;;;;;;;;;8397406;28;20480;-86
2022/07/21 00:27:01;;;;;;;10.70;6.32;;;;;;;;;;8397087;28;20051;-85
2022/07/21 00:31:04;;;;;;;10.20;6.00;;;;;;;;;;8389386;28;20475;-85
2022/07/21 00:35:09;;;;;;;12.30;6.28;;;;;;;;;;8390330;28;20065;-85
2022/07/21 00:39:13;;;;;;;10.13;6.13;;;;;;;;;;8385965;28;20484;-85
2022/07/21 00:43:15;;;;;;;8.95;5.93;;;;;;;;;;8396779;28;20040;-85
2022/07/21 00:47:20;;;;;;;9.45;6.43;;;;;;;;;;8376451;28;20049;-86
2022/07/21 00:51:23;;;;;;;12.57;6.78;;;;;;;;;;8382904;28;20040;-84
2022/07/21 00:55:27;;;;;;;12.20;6.53;;;;;;;;;;8389313;28;20101;-84
2022/07/21 00:59:30;;;;;;;10.77;6.13;;;;;;;;;;8395882;28;20051;-90
2022/07/21 01:03:33;;;;;;;10.02;6.88;;;;;;;;;;8394710;28;20052;-84
2022/07/21 01:07:36;;;;;;;12.32;6.75;;;;;;;;;;8388489;28;20040;-89
2022/07/21 01:11:41;;;;;;;10.38;6.03;;;;;;;;;;8393878;28;20048;-85
2022/07/21 01:15:44;;;;;;;10.82;6.43;;;;;;;;;;8382299;28;20431;-86
2022/07/21 01:19:46;;;;;;;10.85;6.53;;;;;;;;;;8390296;28;20041;-85
2022/07/21 01:23:51;;;;;;;11.18;6.20;;;;;;;;;;8392190;28;20082;-85
2022/07/21 01:27:53;;;;;;;10.02;6.18;;;;;;;;;;8389899;28;20053;-85
2022/07/21 01:31:56;;;;;;;8.70;6.03;;;;;;;;;;8396647;28;20173;-85
2022/07/21 01:35:59;;;;;;;12.82;6.63;;;;;;;;;;8402230;28;20040;-85
2022/07/21 01:44:23;;;;;;;8.43;6.00;;;;;;;;;;8402009;28;20045;-85
2022/07/21 01:48:26;;;;;;;12.65;6.07;;;;;;;;;;8401904;28;20055;-85
2022/07/21 01:52:28;;;;;;;9.23;6.47;;;;;;;;;;8397637;28;20399;-85
2022/07/21 01:56:33;;;;;;;259.02;128.73;;;;;;;;;;8398198;28;20083;-85
2022/07/21 02:00:35;;;;;;;266.48;148.32;;;;;;;;;;8400793;28;20094;-85
2022/07/21 02:04:38;;;;;;;115.93;69.05;;;;;;;;;;8401509;28;20055;-86
2022/07/21 02:08:43;;;;;;;52.00;34.47;;;;;;;;;;8401138;28;20472;-85
2022/07/21 02:12:48;;;;;;;28.58;18.63;;;;;;;;;;8401454;28;20461;-86
2022/07/21 02:16:50;;;;;;;12.13;9.63;;;;;;;;;;8418508;28;20059;-85
2022/07/21 02:20:54;;;;;;;15.32;7.47;;;;;;;;;;8400146;28;20037;-85
2022/07/21 02:24:56;;;;;;;11.75;6.60;;;;;;;;;;8400839;28;20049;-85
2022/07/21 02:29:00;;;;;;;10.88;7.03;;;;;;;;;;8400883;28;20484;-86
2022/07/21 02:33:03;;;;;;;16.85;10.60;;;;;;;;;;8400643;28;20051;-86
2022/07/21 02:37:06;;;;;;;11.43;8.70;;;;;;;;;;8402032;28;20052;-85
2022/07/21 02:41:08;;;;;;;10.90;6.97;;;;;;;;;;8412992;28;20473;-85
2022/07/21 02:45:13;;;;;;;10.55;6.68;;;;;;;;;;8400344;28;20045;-86
2022/07/21 02:49:15;;;;;;;11.10;7.72;;;;;;;;;;8400463;28;20469;-85
2022/07/21 02:53:20;;;;;;;10.38;7.25;;;;;;;;;;8392086;28;20040;-84
2022/07/21 02:57:22;;;;;;;10.73;7.68;;;;;;;;;;8395178;28;20068;-85
2022/07/21 03:01:26;;;;;;;13.20;8.25;;;;;;;;;;8413611;28;20473;-85
2022/07/21 03:05:29;;;;;;;13.48;8.65;;;;;;;;;;8399617;28;20045;-85
2022/07/21 03:09:32;;;;;;;13.25;8.98;;;;;;;;;;8410051;28;20068;-85
2022/07/21 03:13:34;;;;;;;13.82;8.48;;;;;;;;;;8398946;28;20063;-86
2022/07/21 03:17:39;;;;;;;12.85;7.80;;;;;;;;;;8397546;28;20182;-85
2022/07/21 03:21:41;;;;;;;11.35;7.63;;;;;;;;;;8397566;28;20046;-86
2022/07/21 03:25:44;;;;;;;11.38;7.07;;;;;;;;;;8397589;28;20101;-86
2022/07/21 03:29:47;;;;;;;13.18;6.95;;;;;;;;;;8397484;28;20049;-90
2022/07/21 03:33:51;;;;;;;9.70;6.47;;;;;;;;;;8396376;28;20111;-85
2022/07/21 03:37:55;;;;;;;10.20;6.35;;;;;;;;;;8397118;28;20098;-86
2022/07/21 03:41:58;;;;;;;13.32;6.85;;;;;;;;;;8396953;28;20119;-86
2022/07/21 03:46:00;;;;;;;10.57;6.63;;;;;;;;;;8397360;28;20480;-86
2022/07/21 03:50:06;;;;;;;9.88;6.70;;;;;;;;;;8397002;28;20131;-86
2022/07/21 03:54:09;;;;;;;11.40;6.75;;;;;;;;;;8396676;28;20044;-86
2022/07/21 03:58:13;;;;;;;12.50;6.22;;;;;;;;;;8395604;28;20055;-85
2022/07/21 04:02:16;;;;;;;9.07;6.13;;;;;;;;;;8396802;28;20068;-85
2022/07/21 04:06:20;;;;;;;10.63;6.40;;;;;;;;;;8396527;28;20041;-85
2022/07/21 04:10:26;;;;;;;9.80;6.30;;;;;;;;;;8396099;28;20049;-86
2022/07/21 04:14:29;;;;;;;9.35;5.80;;;;;;;;;;8352196;28;1263672;-86
2022/07/21 04:18:31;;;;;;;10.02;6.00;;;;;;;;;;8397334;28;20048;-85
2022/07/21 04:22:36;;;;;;;9.18;5.45;;;;;;;;;;8395335;28;20044;-85
2022/07/21 04:26:38;;;;;;;11.13;5.70;;;;;;;;;;8397165;28;20048;-87
2022/07/21 04:30:41;;;;;;;12.88;6.68;;;;;;;;;;8394955;28;20135;-86
2022/07/21 04:34:43;;;;;;;8.30;5.35;;;;;;;;;;8397315;28;20442;-85
2022/07/21 04:38:48;;;;;;;8.60;5.82;;;;;;;;;;8397217;28;20654;-86
2022/07/21 04:42:50;;;;;;;8.43;5.47;;;;;;;;;;8390469;28;20052;-86
2022/07/21 04:46:53;;;;;;;11.85;6.38;;;;;;;;;;8384835;28;20070;-85
2022/07/21 04:50:56;;;;;;;10.90;5.70;;;;;;;;;;8396597;28;20098;-84
2022/07/21 04:55:00;;;;;;;10.00;5.32;;;;;;;;;;8396761;28;20509;-85
2022/07/21 04:59:03;;;;;;;10.55;5.35;;;;;;;;;;8391244;28;20048;-85
2022/07/21 05:03:06;;;;;;;9.05;5.43;;;;;;;;;;8396346;28;20046;-85
2022/07/21 05:07:09;;;;;;;10.55;5.72;;;;;;;;;;8396504;28;20044;-85
2022/07/21 05:11:13;;;;;;;9.57;6.32;;;;;;;;;;8396704;28;20438;-85
2022/07/21 05:15:17;;;;;;;10.50;5.57;;;;;;;;;;8395986;28;20056;-85
2022/07/21 05:19:21;;;;;;;13.13;8.45;;;;;;;;;;8374788;28;20543;-86
2022/07/21 05:23:26;;;;;;;8.07;5.05;;;;;;;;;;8380558;28;20361;-84
2022/07/21 05:27:34;;;;;;;9.13;6.00;;;;;;;;;;8385410;28;20090;-84
2022/07/21 05:31:39;;;;;;;12.98;7.13;;;;;;;;;;8395814;28;20504;-85
2022/07/21 05:36:07;;;;;;;8.65;5.72;;;;;;;;;;8383248;28;20040;-86
2022/07/21 05:40:12;;;;;;;10.57;6.30;;;;;;;;;;8379190;28;20495;-85
2022/07/21 05:44:17;;;;;;;9.15;5.50;;;;;;;;;;8394475;28;20478;-84
2022/07/21 05:48:20;;;;;;;10.20;6.32;;;;;;;;;;8395089;28;20052;-86
2022/07/21 05:52:23;;;;;;;10.60;6.78;;;;;;;;;;8395496;28;20508;-86
2022/07/21 05:56:26;;;;;;;8.00;5.00;;;;;;;;;;8386140;28;20426;-84
2022/07/21 06:00:31;;;;;;;10.07;4.63;;;;;;;;;;8400410;28;20044;-86
2022/07/21 06:04:34;;;;;;;8.57;5.30;;;;;;;;;;8381866;28;20052;-83
2022/07/21 06:08:39;;;;;;;24.90;22.67;;;;;;;;;;8400060;28;20135;-83
2022/07/21 06:12:43;;;;;;;10.20;5.20;;;;;;;;;;8391778;28;20049;-83
2022/07/21 06:16:48;;;;;;;7.97;4.50;;;;;;;;;;8385776;28;20064;-83
2022/07/21 06:20:51;;;;;;;7.75;5.70;;;;;;;;;;8397265;28;20053;-82
2022/07/21 06:24:56;;;;;;;8.35;4.18;;;;;;;;;;8391756;28;20500;-84
2022/07/21 06:29:00;;;;;;;10.80;4.82;;;;;;;;;;8399193;28;20119;-92
2022/07/21 06:33:05;;;;;;;7.40;4.40;;;;;;;;;;8384134;28;20408;-85
2022/07/21 06:37:07;;;;;;;7.25;4.30;;;;;;;;;;8400390;28;20472;-84
2022/07/21 06:41:10;;;;;;;6.90;4.18;;;;;;;;;;8399789;28;20040;-84
2022/07/21 06:45:13;;;;;;;8.77;3.92;;;;;;;;;;8399816;28;20500;-84
2022/07/21 06:49:18;;;;;;;7.47;3.80;;;;;;;;;;8400172;28;20055;-84
2022/07/21 06:53:22;;;;;;;8.15;4.25;;;;;;;;;;8400071;28;20090;-84
2022/07/21 06:57:26;;;;;;;8.25;4.25;;;;;;;;;;8399867;28;20488;-84
2022/07/21 07:01:29;;;;;;;7.30;4.18;;;;;;;;;;8399907;28;20040;-83
2022/07/21 07:05:34;;;;;;;6.85;3.70;;;;;;;;;;8399689;28;20542;-84
2022/07/21 07:09:38;;;;;;;7.32;4.22;;;;;;;;;;8385623;28;20045;-84
2022/07/21 07:13:42;;;;;;;8.55;3.65;;;;;;;;;;8399108;28;20558;-83
2022/07/21 07:17:45;;;;;;;6.93;3.15;;;;;;;;;;8399106;28;20047;-83
2022/07/21 07:21:50;;;;;;;6.47;3.55;;;;;;;;;;8399175;28;20473;-83
2022/07/21 07:25:53;;;;;;;5.68;3.47;;;;;;;;;;8398150;28;20040;-83
2022/07/21 07:29:56;;;;;;;6.50;3.80;;;;;;;;;;8398922;28;20048;-84
2022/07/21 07:34:00;;;;;;;59.22;27.73;;;;;;;;;;8398578;28;20070;-84
2022/07/21 07:38:05;;;;;;;66.13;25.77;;;;;;;;;;8390955;28;20055;-83
2022/07/21 07:42:12;;;;;;;35.38;12.93;;;;;;;;;;8364256;28;20049;-83
2022/07/21 07:46:17;;;;;;;22.15;8.98;;;;;;;;;;8374643;28;20068;-83
2022/07/21 07:50:23;;;;;;;5.65;2.83;;;;;;;;;;8369161;28;20052;-83
2022/07/21 07:54:33;;;;;;;7.60;3.13;;;;;;;;;;8374167;28;20231;-82
2022/07/21 07:58:39;;;;;;;8.50;4.22;;;;;;;;;;8381687;28;20515;-82
2022/07/21 08:02:45;;;;;;;16.50;7.00;;;;;;;;;;8379690;28;20404;-83
2022/07/21 08:06:50;;;;;;;6.68;3.33;;;;;;;;;;8378418;28;20403;-83
2022/07/21 08:10:59;;;;;;;7.70;3.30;;;;;;;;;;8393024;28;20628;-83
2022/07/21 08:15:03;;;;;;;4.90;2.97;;;;;;;;;;8377486;28;20065;-83
2022/07/21 08:19:08;;;;;;;7.43;5.93;;;;;;;;;;8392485;28;20543;-83
2022/07/21 08:23:12;;;;;;;4.47;3.00;;;;;;;;;;8392052;28;20168;-82
2022/07/21 08:27:17;;;;;;;4.88;3.00;;;;;;;;;;8363537;28;20064;-84
2022/07/21 08:31:22;;;;;;;5.28;3.05;;;;;;;;;;8391287;28;20053;-83
2022/07/21 08:35:29;;;;;;;7.65;3.72;;;;;;;;;;8391253;28;20500;-83
2022/07/21 08:39:32;;;;;;;5.38;3.42;;;;;;;;;;8377603;28;20044;-83
2022/07/21 08:43:40;;;;;;;7.22;2.90;;;;;;;;;;8378052;28;20771;-82
2022/07/21 08:47:45;;;;;;;6.68;2.70;;;;;;;;;;8377486;28;20127;-83
2022/07/21 08:51:49;;;;;;;5.38;2.78;;;;;;;;;;8378157;28;20557;-83
2022/07/21 08:55:54;;;;;;;6.43;3.08;;;;;;;;;;8391570;28;20049;-82
2022/07/21 08:59:59;;;;;;;4.78;2.78;;;;;;;;;;8377722;28;20072;-82
2022/07/21 09:04:21;;;;;;;7.95;3.08;;;;;;;;;;8377564;28;20055;-83
2022/07/21 09:08:30;;;;;;;5.75;2.97;;;;;;;;;;8379463;28;20575;-82
2022/07/21 09:12:50;;;;;;;6.18;2.97;;;;;;;;;;8377823;28;20044;-82
2022/07/21 09:16:57;;;;;;;6.50;3.00;;;;;;;;;;8378776;28;20060;-82
2022/07/21 09:21:01;;;;;;;5.80;2.78;;;;;;;;;;8377526;28;20055;-82
2022/07/21 09:25:06;;;;;;;7.65;3.03;;;;;;;;;;8376597;28;20048;-82
2022/07/21 09:29:11;;;;;;;4.88;2.40;;;;;;;;;;8365362;28;20048;-83
2022/07/21 09:33:38;;;;;;;6.70;2.90;;;;;;;;;;8382238;28;20106;-83
2022/07/21 09:37:45;;;;;;;4.43;2.30;;;;;;;;;;8378451;28;20049;-82
2022/07/21 09:41:49;;;;;;;3.33;2.40;;;;;;;;;;8391642;28;20044;-82
2022/07/21 09:45:56;;;;;;;4.13;2.55;;;;;;;;;;8378036;28;20037;-82
2022/07/21 09:50:05;;;;;;;5.13;2.45;;;;;;;;;;8377908;28;20045;-82
2022/07/21 09:54:10;;;;;;;4.53;2.50;;;;;;;;;;8387100;28;20139;-82
2022/07/21 09:58:15;;;;;;;3.58;2.40;;;;;;;;;;8389968;28;20488;-82
2022/07/21 10:02:22;;;;;;;5.10;2.78;;;;;;;;;;8377334;28;20047;-82
2022/07/21 10:06:30;;;;;;;6.30;2.40;;;;;;;;;;8395787;28;20519;-82
2022/07/21 10:10:34;;;;;;;4.32;2.20;;;;;;;;;;8396780;28;20072;-82
2022/07/21 10:14:39;;;;;;;6.20;2.30;;;;;;;;;;8406423;28;20052;-82
2022/07/21 10:18:55;;;;;;;4.20;2.40;;;;;;;;;;8391175;28;20056;-82
2022/07/21 10:23:16;;;;;;;5.25;2.17;;;;;;;;;;8406692;28;20059;-82
2022/07/21 10:27:23;;;;;;;4.43;2.10;;;;;;;;;;8400917;28;20079;-82
2022/07/21 10:31:31;;;;;;;4.88;2.00;;;;;;;;;;8403842;28;20135;-82
2022/07/21 10:35:35;;;;;;;5.38;2.22;;;;;;;;;;8398004;28;20072;-82
2022/07/21 10:39:41;;;;;;;4.13;2.03;;;;;;;;;;8400661;28;20052;-82
2022/07/21 10:43:44;;;;;;;5.65;2.10;;;;;;;;;;8387044;28;20045;-82
2022/07/21 10:47:52;;;;;;;3.78;2.40;;;;;;;;;;8367379;28;20484;-82
2022/07/21 10:51:55;;;;;;;4.10;2.55;;;;;;;;;;8406451;28;20503;-83
2022/07/21 10:56:01;;;;;;;3.28;2.05;;;;;;;;;;8422250;28;20045;-82
2022/07/21 11:00:27;;;;;;;5.82;2.45;;;;;;;;;;8384531;28;20044;-82
2022/07/21 11:04:33;;;;;;;6.88;2.70;;;;;;;;;;8397748;28;20088;-83
2022/07/21 11:08:39;;;;;;;5.35;2.55;;;;;;;;;;8391098;28;20076;-82
2022/07/21 11:13:00;;;;;;;3.17;2.28;;;;;;;;;;8393791;28;20044;-82
2022/07/21 11:17:05;;;;;;;6.10;2.72;;;;;;;;;;8383210;28;20052;-83
2022/07/21 11:21:14;;;;;;;8.13;2.85;;;;;;;;;;8366450;28;20132;-82
2022/07/21 11:25:21;;;;;;;6.13;2.78;;;;;;;;;;8365353;28;20048;-82
2022/07/21 11:29:29;;;;;;;6.00;2.60;;;;;;;;;;8374852;28;20091;-83
2022/07/21 11:33:33;;;;;;;6.45;2.72;;;;;;;;;;8388798;28;20078;-82
2022/07/21 11:37:42;;;;;;;5.43;2.50;;;;;;;;;;8379480;28;20048;-83
2022/07/21 11:41:45;;;;;;;3.78;2.20;;;;;;;;;;8393056;28;20404;-82
2022/07/21 11:45:55;;;;;;;5.35;2.50;;;;;;;;;;8390100;28;20048;-83
2022/07/21 11:50:01;;;;;;;4.80;2.40;;;;;;;;;;8381319;28;20131;-82
2022/07/21 11:54:05;;;;;;;5.35;2.60;;;;;;;;;;8392860;28;20392;-82
2022/07/21 11:58:15;;;;;;;4.53;2.70;;;;;;;;;;8378870;28;20052;-83
2022/07/21 12:02:24;;;;;;;4.28;2.50;;;;;;;;;;8378666;28;20068;-82
2022/07/21 12:06:32;;;;;;;11.38;3.35;;;;;;;;;;8380870;28;20061;-82
2022/07/21 12:10:39;;;;;;;5.85;2.55;;;;;;;;;;8390657;28;20129;-82
2022/07/21 12:14:50;;;;;;;7.40;2.75;;;;;;;;;;8385461;28;20060;-82
2022/07/21 12:19:17;;;;;;;6.97;2.80;;;;;;;;;;8378833;28;20045;-82
2022/07/21 12:23:24;;;;;;;6.30;2.80;;;;;;;;;;8391952;28;20104;-82
2022/07/21 12:27:30;;;;;;;6.03;2.72;;;;;;;;;;8377578;28;20105;-82
2022/07/21 12:31:36;;;;;;;5.70;2.80;;;;;;;;;;8378406;28;20048;-82
2022/07/21 12:35:43;;;;;;;3.53;2.40;;;;;;;;;;8377956;28;20122;-82
2022/07/21 12:40:02;;;;;;;6.75;2.70;;;;;;;;;;8378396;28;20044;-82
2022/07/21 12:44:06;;;;;;;5.10;2.35;;;;;;;;;;8372427;28;20044;-83
2022/07/21 12:48:11;;;;;;;4.50;2.58;;;;;;;;;;8377729;28;20091;-83
2022/07/21 12:52:20;;;;;;;7.50;2.88;;;;;;;;;;8355641;28;20045;-83
2022/07/21 12:56:41;;;;;;;3.90;2.47;;;;;;;;;;8378903;28;20052;-82
2022/07/21 13:00:52;;;;;;;8.02;2.88;;;;;;;;;;8364135;28;20064;-82
2022/07/21 13:04:57;;;;;;;;;;;;;;;;;;8378847;28;20047;-83
2022/07/21 13:09:07;;;;;;;4.07;2.80;;;;;;;;;;8376315;28;19924;-83
2022/07/21 13:13:15;;;;;;;4.23;2.77;;;;;;;;;;8372159;28;20119;-82
2022/07/21 13:17:23;;;;;;;4.28;2.60;;;;;;;;;;8382390;28;20455;-83
2022/07/21 13:21:34;;;;;;;6.68;2.80;;;;;;;;;;8369537;28;20045;-82
2022/07/21 13:25:54;;;;;;;6.00;2.55;;;;;;;;;;8357755;28;20045;-82
2022/07/21 13:29:59;;;;;;;6.80;2.72;;;;;;;;;;8359086;28;20501;-82
2022/07/21 13:34:09;;;;;;;5.38;2.63;;;;;;;;;;8357890;28;20087;-84
2022/07/21 13:38:25;;;;;;;5.10;3.00;;;;;;;;;;8360910;28;20049;-82
2022/07/21 13:42:36;;;;;;;5.65;2.88;;;;;;;;;;8359599;28;20484;-82
2022/07/21 13:46:42;;;;;;;4.75;2.90;;;;;;;;;;8357432;28;20091;-82
2022/07/21 13:50:49;;;;;;;4.97;2.60;;;;;;;;;;8357067;28;20101;-82
2022/07/21 13:54:53;;;;;;;4.72;2.50;;;;;;;;;;8388512;28;20051;-83
2022/07/21 13:58:59;;;;;;;5.47;2.70;;;;;;;;;;8376678;28;20074;-83
2022/07/21 14:03:02;;;;;;;8.77;3.15;;;;;;;;;;8389637;28;20404;-83
2022/07/21 14:07:05;;;;;;;5.75;2.95;;;;;;;;;;8390635;28;20040;-83
2022/07/21 14:11:13;;;;;;;4.75;2.67;;;;;;;;;;8380783;28;20045;-83
2022/07/21 14:15:19;;;;;;;8.30;2.83;;;;;;;;;;8376156;28;20135;-83
2022/07/21 14:19:22;;;;;;;6.38;2.80;;;;;;;;;;8380598;28;20045;-82
2022/07/21 14:23:29;;;;;;;4.63;2.80;;;;;;;;;;8381528;28;20115;-82
2022/07/21 14:27:34;;;;;;;6.38;2.90;;;;;;;;;;8384276;28;20048;-82
2022/07/21 14:31:39;;;;;;;5.28;2.50;;;;;;;;;;8383798;28;20064;-82
2022/07/21 14:35:46;;;;;;;6.47;3.08;;;;;;;;;;8399718;28;20044;-85
2022/07/21 14:39:56;;;;;;;6.18;2.88;;;;;;;;;;8400504;28;20048;-83
2022/07/21 14:44:01;;;;;;;5.25;2.78;;;;;;;;;;8399814;28;20044;-83
2022/07/21 14:48:08;;;;;;;5.38;2.80;;;;;;;;;;8399963;28;20062;-82
2022/07/21 14:52:12;;;;;;;7.90;3.40;;;;;;;;;;8399342;28;20060;-84
2022/07/21 14:56:17;;;;;;;8.02;2.90;;;;;;;;;;8399517;28;20045;-82
2022/07/21 15:00:23;;;;;;;4.13;2.90;;;;;;;;;;8399959;28;20059;-82
2022/07/21 15:04:30;;;;;;;7.00;3.13;;;;;;;;;;8399423;28;20079;-82
2022/07/21 15:08:34;;;;;;;4.78;2.80;;;;;;;;;;8398921;28;20377;-83
2022/07/21 15:12:38;;;;;;;5.03;2.75;;;;;;;;;;8385610;28;20447;-82
2022/07/21 15:16:42;;;;;;;9.00;6.70;;;;;;;;;;8370209;28;20057;-83
2022/07/21 15:20:54;;;;;;;6.35;2.60;;;;;;;;;;8398410;28;20059;-85
2022/07/21 15:24:58;;;;;;;5.85;2.90;;;;;;;;;;8397597;28;20127;-83
2022/07/21 15:29:02;;;;;;;6.53;3.00;;;;;;;;;;8393681;28;20041;-83
2022/07/21 15:33:05;;;;;;;6.05;2.92;;;;;;;;;;8395702;28;20040;-84
2022/07/21 15:37:11;;;;;;;6.35;3.25;;;;;;;;;;8392012;28;20041;-83
2022/07/21 15:41:15;;;;;;;5.65;3.22;;;;;;;;;;8393753;28;20040;-84
2022/07/21 15:45:18;;;;;;;4.97;3.25;;;;;;;;;;8391257;28;20048;-83
2022/07/21 15:49:21;;;;;;;8.82;3.05;;;;;;;;;;8394757;28;20503;-84
2022/07/21 15:53:26;;;;;;;6.57;2.88;;;;;;;;;;8379999;28;20036;-84
2022/07/21 15:57:31;;;;;;;5.55;2.85;;;;;;;;;;8391118;28;20469;-85
2022/07/21 16:01:40;;;;;;;4.45;3.05;;;;;;;;;;8368936;28;20087;-93
2022/07/21 16:05:44;;;;;;;5.47;2.83;;;;;;;;;;8382211;28;20475;-84
2022/07/21 16:09:49;;;;;;;5.70;3.28;;;;;;;;;;8397715;28;20048;-84
2022/07/21 16:13:52;;;;;;;8.32;3.00;;;;;;;;;;8396237;28;20416;-83
2022/07/21 16:17:56;;;;;;;6.35;2.72;;;;;;;;;;8397354;28;20049;-83
2022/07/21 16:21:59;;;;;;;7.40;3.53;;;;;;;;;;8397349;28;20040;-83
2022/07/21 16:26:04;;;;;;;8.27;3.42;;;;;;;;;;8397082;28;20044;-82
2022/07/21 16:30:09;;;;;;;20.33;3.88;;;;;;;;;;8397334;28;20477;-82
2022/07/21 16:34:13;;;;;;;9.95;3.35;;;;;;;;;;8397114;28;20047;-83
2022/07/21 16:38:16;;;;;;;7.57;3.72;;;;;;;;;;8396833;28;20048;-82
2022/07/21 16:42:21;;;;;;;7.07;3.03;;;;;;;;;;8384667;28;20048;-82
2022/07/21 16:46:24;;;;;;;8.15;3.40;;;;;;;;;;8362197;28;20118;-82
2022/07/21 16:50:28;;;;;;;6.45;3.15;;;;;;;;;;8380065;28;20056;-82
2022/07/21 16:54:31;;;;;;;5.93;2.85;;;;;;;;;;8384734;28;20044;-83
2022/07/21 16:58:36;;;;;;;5.15;2.72;;;;;;;;;;8370907;28;20045;-83
2022/07/21 17:02:39;;;;;;;4.68;2.90;;;;;;;;;;8362034;28;20057;-83
2022/07/21 17:06:44;;;;;;;15.98;3.50;;;;;;;;;;8385418;28;20056;-83
2022/07/21 17:10:52;;;;;;;6.00;2.92;;;;;;;;;;8365011;28;20048;-83
2022/07/21 17:14:58;;;;;;;5.57;3.38;;;;;;;;;;8380080;28;20056;-83
2022/07/21 17:19:01;;;;;;;9.13;4.50;;;;;;;;;;8387496;28;20055;-83
2022/07/21 17:23:07;;;;;;;16.52;9.68;;;;;;;;;;8387477;28;20044;-82
2022/07/21 17:27:11;;;;;;;17.88;9.35;;;;;;;;;;8377573;28;20049;-83
2022/07/21 17:31:17;;;;;;;13.43;8.10;;;;;;;;;;8381437;28;20059;-83
2022/07/21 17:35:20;;;;;;;13.55;7.47;;;;;;;;;;8382728;28;20048;-83
2022/07/21 17:39:23;;;;;;;13.20;7.25;;;;;;;;;;8377095;28;20044;-83
2022/07/21 17:43:26;;;;;;;10.68;6.25;;;;;;;;;;8376708;28;20048;-83
2022/07/21 17:47:32;;;;;;;10.75;6.03;;;;;;;;;;8370604;28;20113;-83
2022/07/21 17:51:37;;;;;;;6.03;3.38;;;;;;;;;;8372675;28;20045;-83
2022/07/21 17:55:42;;;;;;;7.43;4.10;;;;;;;;;;8377348;28;20431;-92
2022/07/21 17:59:47;;;;;;;13.75;4.75;;;;;;;;;;8392704;28;20474;-94
2022/07/21 18:03:54;;;;;;;10.27;4.68;;;;;;;;;;8383227;28;20048;-86
2022/07/21 18:07:59;;;;;;;12.38;4.50;;;;;;;;;;8373050;28;20128;-86
2022/07/21 18:12:04;;;;;;;14.27;4.50;;;;;;;;;;8363005;28;20045;-85
2022/07/21 18:16:10;;;;;;;12.15;4.75;;;;;;;;;;8366435;28;20052;-85
2022/07/21 18:20:17;;;;;;;8.13;4.03;;;;;;;;;;8381087;28;20606;-86
2022/07/21 18:24:22;;;;;;;6.45;3.63;;;;;;;;;;8374592;28;20072;-86
2022/07/21 18:28:25;;;;;;;7.57;3.92;;;;;;;;;;8383746;28;20093;-86
2022/07/21 18:32:28;;;;;;;13.70;5.03;;;;;;;;;;8389502;28;20058;-85
2022/07/21 18:36:33;;;;;;;8.90;4.22;;;;;;;;;;8395404;28;20518;-85
2022/07/21 18:40:37;;;;;;;8.63;4.07;;;;;;;;;;8392407;28;20044;-86
2022/07/21 18:44:41;;;;;;;9.77;4.15;;;;;;;;;;8382952;28;20085;-88
2022/07/21 18:48:44;;;;;;;8.68;4.88;;;;;;;;;;8390243;28;20477;-86
2022/07/21 18:52:51;;;;;;;8.43;5.65;;;;;;;;;;8371613;28;20048;-87
2022/07/21 18:56:55;;;;;;;8.30;5.53;;;;;;;;;;8390457;28;20075;-86
2022/07/21 19:01:02;;;;;;;8.75;4.65;;;;;;;;;;8387712;28;20041;-86
2022/07/21 19:05:06;;;;;;;15.63;5.90;;;;;;;;;;8391618;28;20040;-86
2022/07/21 19:09:12;;;;;;;22.25;9.10;;;;;;;;;;8388847;28;20044;-87
2022/07/21 19:13:18;;;;;;;13.85;6.28;;;;;;;;;;8365722;28;20041;-87
2022/07/21 19:17:27;;;;;;;14.00;8.20;;;;;;;;;;8361269;28;20049;-87
2022/07/21 19:21:31;;;;;;;9.30;5.45;;;;;;;;;;8365352;28;20048;-87
2022/07/21 19:26:17;;;;;;;10.77;7.00;;;;;;;;;;8358804;28;20412;-87
2022/07/21 19:30:23;;;;;;;10.02;7.50;;;;;;;;;;8359563;28;20119;-87
2022/07/21 19:34:27;;;;;;;11.45;5.93;;;;;;;;;;8363798;28;20041;-87
2022/07/21 19:38:31;;;;;;;9.63;5.43;;;;;;;;;;8365534;28;20040;-86
2022/07/21 19:42:36;;;;;;;10.60;6.03;;;;;;;;;;8365605;28;20056;-87
2022/07/21 19:46:39;;;;;;;9.18;5.43;;;;;;;;;;8365284;28;20040;-87
2022/07/21 19:50:45;;;;;;;8.63;5.53;;;;;;;;;;8365252;28;20401;-86
2022/07/21 19:54:48;;;;;;;9.80;5.75;;;;;;;;;;8365052;28;20036;-86
2022/07/21 19:58:53;;;;;;;10.93;5.25;;;;;;;;;;8365273;28;20468;-86
2022/07/21 20:02:57;;;;;;;7.43;5.47;;;;;;;;;;8364905;28;20049;-87
2022/07/21 20:07:02;;;;;;;9.38;5.60;;;;;;;;;;8364683;28;20047;-87
2022/07/21 20:11:06;;;;;;;13.05;5.68;;;;;;;;;;8364582;28;20072;-87
2022/07/21 20:15:14;;;;;;;9.88;5.50;;;;;;;;;;8363974;28;20056;-87
2022/07/21 20:19:17;;;;;;;11.55;6.30;;;;;;;;;;8364250;28;20045;-87
2022/07/21 20:23:21;;;;;;;10.05;6.07;;;;;;;;;;8364240;28;20052;-87
2022/07/21 20:27:24;;;;;;;8.82;5.85;;;;;;;;;;8364058;28;20075;-87
2022/07/21 20:31:29;;;;;;;11.02;5.93;;;;;;;;;;8364038;28;20048;-87
2022/07/21 20:35:32;;;;;;;12.55;6.50;;;;;;;;;;8363891;28;20052;-87
2022/07/21 20:39:36;;;;;;;10.75;6.05;;;;;;;;;;8363718;28;20045;-87
2022/07/21 20:43:40;;;;;;;15.43;5.85;;;;;;;;;;8363671;28;20114;-87
2022/07/21 20:47:45;;;;;;;9.15;6.03;;;;;;;;;;8363518;28;20060;-87
2022/07/21 20:51:48;;;;;;;8.77;6.20;;;;;;;;;;8363547;28;20455;-87
2022/07/21 20:55:52;;;;;;;13.27;6.43;;;;;;;;;;8363100;28;20045;-87
2022/07/21 20:59:55;;;;;;;12.18;6.63;;;;;;;;;;8363273;28;20040;-87
2022/07/21 21:04:01;;;;;;;13.02;6.20;;;;;;;;;;8363262;28;20049;-87
2022/07/21 21:08:05;;;;;;;9.45;6.40;;;;;;;;;;8358409;28;20110;-87
2022/07/21 21:12:09;;;;;;;13.63;6.68;;;;;;;;;;8363300;28;20040;-87
2022/07/21 21:16:13;;;;;;;11.75;6.68;;;;;;;;;;8386490;28;20470;-88
2022/07/21 21:20:18;;;;;;;10.43;6.45;;;;;;;;;;8396101;28;20052;-87
2022/07/21 21:24:21;;;;;;;10.63;5.80;;;;;;;;;;8396214;28;20087;-88
2022/07/21 21:28:25;;;;;;;14.63;6.30;;;;;;;;;;8400399;28;20044;-88
2022/07/21 21:32:28;;;;;;;12.38;6.03;;;;;;;;;;8403095;28;20044;-87
2022/07/21 21:36:33;;;;;;;13.57;6.20;;;;;;;;;;8385681;28;20048;-88
2022/07/21 21:40:36;;;;;;;9.05;5.85;;;;;;;;;;8402710;28;20060;-87
2022/07/21 21:44:39;;;;;;;9.80;6.88;;;;;;;;;;8402596;28;20036;-87
2022/07/21 21:48:43;;;;;;;10.13;6.15;;;;;;;;;;8402404;28;20055;-88
2022/07/21 21:52:48;;;;;;;15.07;6.53;;;;;;;;;;8402124;28;20481;-87
2022/07/21 21:56:51;;;;;;;10.40;6.60;;;;;;;;;;8402090;28;20131;-87
2022/07/21 22:00:54;;;;;;;13.02;7.30;;;;;;;;;;8401661;28;20404;-87
2022/07/21 22:04:57;;;;;;;9.63;6.40;;;;;;;;;;8401707;28;20127;-87
2022/07/21 22:09:02;;;;;;;13.65;6.90;;;;;;;;;;8401630;28;20157;-87
2022/07/21 22:13:05;;;;;;;10.93;6.88;;;;;;;;;;8401432;28;20041;-88
2022/07/21 22:17:08;;;;;;;13.60;7.13;;;;;;;;;;8401279;28;20094;-88
2022/07/21 22:21:11;;;;;;;11.00;7.18;;;;;;;;;;8401013;28;20076;-88
2022/07/21 22:25:16;;;;;;;10.07;6.20;;;;;;;;;;8401236;28;20056;-87
2022/07/21 22:29:19;;;;;;;10.43;6.63;;;;;;;;;;8400988;28;20123;-88
2022/07/21 22:33:22;;;;;;;10.70;6.65;;;;;;;;;;8400989;28;20093;-88
2022/07/21 22:37:24;;;;;;;9.10;6.30;;;;;;;;;;8400621;28;20040;-88
2022/07/21 22:41:29;;;;;;;9.35;6.20;;;;;;;;;;8400840;28;20090;-87
2022/07/21 22:45:37;;;;;;;14.48;7.35;;;;;;;;;;8400427;28;20485;-88
2022/07/21 22:49:40;;;;;;;20.45;7.10;;;;;;;;;;8400431;28;20044;-87
2022/07/21 22:53:43;;;;;;;8.55;6.10;;;;;;;;;;8400217;28;20049;-88
2022/07/21 22:57:47;;;;;;;13.18;7.32;;;;;;;;;;8394788;28;20037;-88
2022/07/21 23:01:50;;;;;;;13.82;7.00;;;;;;;;;;8400032;28;20037;-88
2022/07/21 23:05:53;;;;;;;10.70;6.82;;;;;;;;;;8399877;28;20048;-88
2022/07/21 23:09:55;;;;;;;10.00;6.85;;;;;;;;;;8399790;28;20490;-88
2022/07/21 23:14:00;;;;;;;11.05;6.60;;;;;;;;;;8399421;28;20493;-88
2022/07/21 23:18:03;;;;;;;11.43;6.90;;;;;;;;;;8399413;28;20060;-88
2022/07/21 23:22:05;;;;;;;12.35;7.15;;;;;;;;;;8399333;28;20114;-87
2022/07/21 23:26:08;;;;;;;10.48;6.55;;;;;;;;;;8399341;28;20106;-87
2022/07/21 23:30:13;;;;;;;10.07;6.30;;;;;;;;;;8395982;28;20044;-88
2022/07/21 23:34:15;;;;;;;11.40;6.60;;;;;;;;;;8398975;28;20045;-88
2022/07/21 23:38:18;;;;;;;13.07;6.60;;;;;;;;;;8398816;28;20045;-88
2022/07/21 23:42:20;;;;;;;9.48;6.50;;;;;;;;;;8398544;28;20507;-88
2022/07/21 23:46:24;;;;;;;11.77;7.32;;;;;;;;;;8398730;28;20048;-89
2022/07/21 23:50:27;;;;;;;12.50;7.03;;;;;;;;;;8398092;28;20052;-88
2022/07/21 23:54:30;;;;;;;12.20;7.00;;;;;;;;;;8398219;28;20115;-88
2022/07/21 23:58:33;;;;;;;10.38;6.57;;;;;;;;;;8398186;28;20079;-88
